createdAt,value
2019-04-21T00:00:45.681Z,39.73
2019-04-21T00:03:25.776Z,21.50
2019-04-21T00:06:13.965Z,49.07
2019-04-21T00:08:50.858Z,22.03
2019-04-21T00:11:26.374Z,17.53
2019-04-21T00:13:52.206Z,26.90
2019-04-21T00:16:19.192Z,17.27
2019-04-21T00:19:09.086Z,28.80
2019-04-21T00:21:44.881Z,21.50
2019-04-21T00:24:34.712Z,29.53
2019-04-21T00:27:09.893Z,25.10
2019-04-21T00:29:47.930Z,24.53
2019-04-21T00:32:22.217Z,14.33
2019-04-21T00:34:51.230Z,19.60
2019-04-21T00:37:45.390Z,18.90
2019-04-21T00:40:22.739Z,30.97
2019-04-21T00:42:58.814Z,28.13
2019-04-21T00:45:23.678Z,21.50
2019-04-21T00:48:11.375Z,23.10
2019-04-21T00:51:03.517Z,13.90
2019-04-21T00:53:38.378Z,21.60
2019-04-21T00:56:20.142Z,20.77
2019-04-21T00:58:39.005Z,14.70
2019-04-21T01:01:15.008Z,16.27
2019-04-21T01:03:53.761Z,28.30
2019-04-21T01:06:34.040Z,15.53
2019-04-21T01:09:01.179Z,20.03
2019-04-21T01:11:42.568Z,22.70
2019-04-21T01:14:15.089Z,20.80
2019-04-21T01:16:51.824Z,16.97
2019-04-21T01:19:23.782Z,18.03
2019-04-21T01:21:40.514Z,27.07
2019-04-21T01:24:21.972Z,22.10
2019-04-21T01:27:02.273Z,16.07
2019-04-21T01:29:51.297Z,10.13
2019-04-21T01:32:23.697Z,21.40
2019-04-21T01:34:59.386Z,15.80
2019-04-21T01:37:44.330Z,19.10
2019-04-21T01:40:16.545Z,33.13
2019-04-21T01:42:48.472Z,19.93
2019-04-21T01:45:24.619Z,12.63
2019-04-21T01:47:59.276Z,12.47
2019-04-21T01:50:28.988Z,22.30
2019-04-21T01:53:24.377Z,16.20
2019-04-21T01:56:00.589Z,12.53
2019-04-21T01:58:34.146Z,8.33
2019-04-21T02:01:08.730Z,11.40
2019-04-21T02:06:36.219Z,12.43
2019-04-21T02:09:04.446Z,14.60
2019-04-21T02:11:43.215Z,8.67
2019-04-21T02:14:19.698Z,13.70
2019-04-21T02:16:54.057Z,13.43
2019-04-21T02:19:26.679Z,20.33
2019-04-21T02:21:56.716Z,19.23
2019-04-21T02:24:42.692Z,18.67
2019-04-21T02:27:14.925Z,17.43
2019-04-21T02:29:55.896Z,19.30
2019-04-21T02:32:35.326Z,23.23
2019-04-21T02:35:25.609Z,35.50
2019-04-21T02:38:03.921Z,23.97
2019-04-21T02:40:27.955Z,20.77
2019-04-21T02:43:05.394Z,16.00
2019-04-21T02:45:32.373Z,18.73
2019-04-21T02:50:37.067Z,17.17
2019-04-21T02:53:30.577Z,14.77
2019-04-21T02:55:56.400Z,14.23
2019-04-21T02:58:58.335Z,13.10
2019-04-21T03:04:24.763Z,21.90
2019-04-21T03:07:13.215Z,17.23
2019-04-21T03:09:59.755Z,22.57
2019-04-21T03:12:20.206Z,20.37
2019-04-21T03:15:04.328Z,32.57
2019-04-21T03:20:08.118Z,15.47
2019-04-21T03:22:42.727Z,15.37
2019-04-21T03:33:54.488Z,15.30
2019-04-21T03:38:28.958Z,11.00
2019-04-21T03:40:57.414Z,18.13
2019-04-21T03:46:08.216Z,13.20
2019-04-21T03:48:46.798Z,8.20
2019-04-21T03:51:23.128Z,12.47
2019-04-21T03:54:00.000Z,38.00
2019-04-21T04:00:18.126Z,17.60
2019-04-21T04:03:53.823Z,13.90
2019-04-21T04:06:09.515Z,12.10
2019-04-21T04:16:19.547Z,19.13
2019-04-21T04:19:09.150Z,27.43
2019-04-21T04:24:05.036Z,17.30
2019-04-21T04:29:27.365Z,20.60
2019-04-21T04:32:16.910Z,16.50
2019-04-21T04:40:10.893Z,19.00
2019-04-21T04:43:07.825Z,17.03
2019-04-21T04:50:51.494Z,29.53
2019-04-21T04:59:19.751Z,33.57
2019-04-21T05:03:48.924Z,21.87
2019-04-21T05:14:22.539Z,19.33
2019-04-21T05:19:34.718Z,22.87
2019-04-21T05:22:12.105Z,17.93
2019-04-21T05:24:33.815Z,24.90
2019-04-21T05:27:08.744Z,21.40
2019-04-21T05:30:11.248Z,24.27
2019-04-21T05:33:00.333Z,29.73
2019-04-21T05:35:56.257Z,17.57
2019-04-21T05:38:56.561Z,21.87
2019-04-21T05:41:22.164Z,26.93
2019-04-21T05:44:06.595Z,17.90
2019-04-21T05:46:53.388Z,17.80
2019-04-21T05:49:26.442Z,19.43
2019-04-21T05:52:06.685Z,20.13
2019-04-21T05:54:49.629Z,22.97
2019-04-21T05:57:20.670Z,18.67
2019-04-21T06:00:10.322Z,21.93
2019-04-21T06:02:39.874Z,22.57
2019-04-21T06:05:24.509Z,15.17
2019-04-21T06:07:46.130Z,19.00
2019-04-21T06:10:27.432Z,13.20
2019-04-21T06:13:09.484Z,15.83
2019-04-21T06:15:54.287Z,11.60
2019-04-21T06:18:28.873Z,16.07
2019-04-21T06:20:59.811Z,10.83
2019-04-21T06:23:36.339Z,16.77
2019-04-21T06:28:46.738Z,16.03
2019-04-21T06:31:33.755Z,21.63
2019-04-21T06:34:00.223Z,8.43
2019-04-21T06:39:54.060Z,9.63
2019-04-21T06:42:13.321Z,8.37
2019-04-21T06:44:57.419Z,9.97
2019-04-21T06:47:36.128Z,14.70
2019-04-21T06:50:12.246Z,12.27
2019-04-21T06:52:51.955Z,9.20
2019-04-21T06:55:20.164Z,12.67
2019-04-21T06:57:51.639Z,7.97
2019-04-21T07:00:27.671Z,8.53
2019-04-21T07:03:14.207Z,7.80
2019-04-21T07:05:40.945Z,7.10
2019-04-21T07:10:51.778Z,8.30
2019-04-21T07:13:25.125Z,8.10
2019-04-21T07:16:04.687Z,13.83
2019-04-21T07:18:42.899Z,15.50
2019-04-21T07:21:12.743Z,13.03
2019-04-21T07:23:57.246Z,12.07
2019-04-21T07:26:29.620Z,5.13
2019-04-21T07:29:20.641Z,45.03
2019-04-21T07:31:47.168Z,17.07
2019-04-21T07:34:21.658Z,17.43
2019-04-21T07:39:29.759Z,9.50
2019-04-21T07:42:06.943Z,12.70
2019-04-21T07:44:35.105Z,7.03
2019-04-21T07:47:44.511Z,17.90
2019-04-21T07:50:22.766Z,10.30
2019-04-21T07:53:22.290Z,9.37
2019-04-21T07:55:37.288Z,7.63
2019-04-21T07:58:26.210Z,7.67
2019-04-21T08:01:11.707Z,7.77
2019-04-21T08:03:46.037Z,8.20
2019-04-21T08:06:25.348Z,4.80
2019-04-21T08:08:52.908Z,8.60
2019-04-21T08:11:28.429Z,6.20
2019-04-21T08:14:25.446Z,5.03
2019-04-21T08:16:46.079Z,7.53
2019-04-21T08:19:18.982Z,14.20
2019-04-21T08:22:00.087Z,6.50
2019-04-21T08:24:27.375Z,6.10
2019-04-21T08:27:11.047Z,12.57
2019-04-21T08:29:47.776Z,12.23
2019-04-21T08:32:31.618Z,7.27
2019-04-21T08:35:08.527Z,8.30
2019-04-21T08:37:30.753Z,5.87
2019-04-21T08:40:15.781Z,6.37
2019-04-21T08:42:47.324Z,8.27
2019-04-21T08:45:22.841Z,6.23
2019-04-21T08:48:02.745Z,9.33
2019-04-21T08:50:33.893Z,7.53
2019-04-21T08:53:07.835Z,8.33
2019-04-21T08:59:18.836Z,9.03
2019-04-21T09:02:23.123Z,7.93
2019-04-21T09:04:52.923Z,7.57
2019-04-21T09:07:36.278Z,7.83
2019-04-21T09:10:03.209Z,11.27
2019-04-21T09:12:41.785Z,9.70
2019-04-21T09:15:19.024Z,11.63
2019-04-21T09:17:48.912Z,10.20
2019-04-21T09:20:33.597Z,7.80
2019-04-21T09:23:06.434Z,7.47
2019-04-21T09:28:14.022Z,6.87
2019-04-21T09:30:39.475Z,9.53
2019-04-21T09:33:09.620Z,15.90
2019-04-21T09:35:49.225Z,8.73
2019-04-21T09:38:29.860Z,7.00
2019-04-21T09:40:59.732Z,6.73
2019-04-21T09:43:40.067Z,7.87
2019-04-21T09:46:09.540Z,7.90
2019-04-21T09:48:54.898Z,7.33
2019-04-21T09:51:21.316Z,8.80
2019-04-21T09:54:05.831Z,17.57
2019-04-21T09:56:41.524Z,8.03
2019-04-21T09:59:18.081Z,6.90
2019-04-21T10:01:57.597Z,6.73
2019-04-21T10:04:21.216Z,10.43
2019-04-21T10:06:58.729Z,9.07
2019-04-21T10:09:35.692Z,11.57
2019-04-21T10:12:09.810Z,6.70
2019-04-21T10:14:51.886Z,6.60
2019-04-21T10:17:52.066Z,10.53
2019-04-21T10:20:26.479Z,11.30
2019-04-21T10:23:02.931Z,9.33
2019-04-21T10:25:38.756Z,7.33
2019-04-21T10:28:14.994Z,7.90
2019-04-21T10:30:50.850Z,9.87
2019-04-21T10:33:26.297Z,8.93
2019-04-21T10:36:02.667Z,8.00
2019-04-21T10:38:43.222Z,6.83
2019-04-21T10:41:15.131Z,9.30
2019-04-21T10:43:51.266Z,8.93
2019-04-21T10:46:26.638Z,11.00
2019-04-21T10:49:01.030Z,5.83
2019-04-21T10:51:37.016Z,12.07
2019-04-21T10:54:11.708Z,9.43
2019-04-21T10:56:47.471Z,6.67
2019-04-21T10:59:26.800Z,8.97
2019-04-21T11:02:03.272Z,6.93
2019-04-21T11:04:39.091Z,10.13
2019-04-21T11:07:38.986Z,6.87
2019-04-21T11:10:09.966Z,9.30
2019-04-21T11:12:46.372Z,8.97
2019-04-21T11:15:21.191Z,5.80
2019-04-21T11:17:57.579Z,7.37
2019-04-21T11:20:32.997Z,9.30
2019-04-21T11:23:08.071Z,6.23
2019-04-21T11:25:42.310Z,8.37
2019-04-21T11:28:16.835Z,7.07
2019-04-21T11:30:53.072Z,5.63
2019-04-21T11:33:29.065Z,7.43
2019-04-21T11:36:03.597Z,7.40
2019-04-21T11:39:05.348Z,8.80
2019-04-21T11:41:27.858Z,7.33
2019-04-21T11:44:03.448Z,5.80
2019-04-21T11:46:38.348Z,8.43
2019-04-21T11:49:12.580Z,10.47
2019-04-21T11:51:46.949Z,7.60
2019-04-21T11:54:20.833Z,8.87
2019-04-21T11:56:56.625Z,11.53
2019-04-21T11:59:33.439Z,7.97
2019-04-21T12:02:07.909Z,5.97
2019-04-21T12:04:43.433Z,14.87
2019-04-21T12:07:17.627Z,7.30
2019-04-21T12:09:55.401Z,5.20
2019-04-21T12:12:29.910Z,9.67
2019-04-21T12:15:04.443Z,8.83
2019-04-21T12:17:41.800Z,6.33
2019-04-21T12:20:16.750Z,7.37
2019-04-21T12:22:52.818Z,9.07
2019-04-21T12:25:34.081Z,7.63
2019-04-21T12:28:08.020Z,10.23
2019-04-21T12:30:42.578Z,9.57
2019-04-21T12:33:36.258Z,8.23
2019-04-21T12:36:11.492Z,6.83
2019-04-21T12:38:52.181Z,7.83
2019-04-21T12:41:22.567Z,5.43
2019-04-21T12:43:57.720Z,8.80
2019-04-21T12:46:31.847Z,8.13
2019-04-21T12:49:05.907Z,6.77
2019-04-21T12:51:39.822Z,8.87
2019-04-21T12:54:15.335Z,7.07
2019-04-21T12:56:49.847Z,6.70
2019-04-21T12:59:24.573Z,7.80
2019-04-21T13:02:01.127Z,7.90
2019-04-21T13:04:36.091Z,5.67
2019-04-21T13:07:13.280Z,7.53
2019-04-21T13:09:48.429Z,6.07
2019-04-21T13:12:24.846Z,6.27
2019-04-21T13:14:59.570Z,6.73
2019-04-21T13:17:35.368Z,10.27
2019-04-21T13:20:11.643Z,8.17
2019-04-21T13:22:46.093Z,19.27
2019-04-21T13:25:20.130Z,8.50
2019-04-21T13:27:56.425Z,7.90
2019-04-21T13:30:30.557Z,11.67
2019-04-21T13:33:07.032Z,8.30
2019-04-21T13:35:41.337Z,16.57
2019-04-21T13:38:24.322Z,8.00
2019-04-21T13:41:30.440Z,10.20
2019-04-21T13:44:15.753Z,6.30
2019-04-21T13:46:54.640Z,6.27
2019-04-21T13:49:29.490Z,6.07
2019-04-21T13:52:04.821Z,9.13
2019-04-21T13:54:39.885Z,7.87
2019-04-21T13:57:14.476Z,7.87
2019-04-21T13:59:49.611Z,10.83
2019-04-21T14:02:24.757Z,10.00
2019-04-21T14:04:59.313Z,11.23
2019-04-21T14:07:34.389Z,10.97
2019-04-21T14:10:11.016Z,14.33
2019-04-21T14:12:46.795Z,10.30
2019-04-21T14:15:22.147Z,11.03
2019-04-21T14:17:56.883Z,7.27
2019-04-21T14:20:35.251Z,7.77
2019-04-21T14:23:21.330Z,10.47
2019-04-21T14:25:47.999Z,10.47
2019-04-21T14:28:24.089Z,8.53
2019-04-21T14:30:58.669Z,7.13
2019-04-21T14:33:33.849Z,9.67
2019-04-21T14:36:08.592Z,8.30
2019-04-21T14:38:42.915Z,9.27
2019-04-21T14:41:20.002Z,7.03
2019-04-21T14:43:55.239Z,10.83
2019-04-21T14:46:49.095Z,8.90
2019-04-21T14:49:44.866Z,8.70
2019-04-21T14:52:26.258Z,9.10
2019-04-21T14:55:16.556Z,11.07
2019-04-21T14:57:51.575Z,8.50
2019-04-21T15:00:31.306Z,9.33
2019-04-21T15:03:05.854Z,15.33
2019-04-21T15:05:39.796Z,8.13
2019-04-21T15:08:14.956Z,10.73
2019-04-21T15:10:49.376Z,12.13
2019-04-21T15:13:23.711Z,9.33
2019-04-21T15:15:58.007Z,10.60
2019-04-21T15:18:32.771Z,13.40
2019-04-21T15:21:07.776Z,8.90
2019-04-21T15:23:42.564Z,7.90
2019-04-21T15:26:16.098Z,8.80
2019-04-21T15:28:50.963Z,13.77
2019-04-21T15:31:30.546Z,8.63
2019-04-21T15:34:01.752Z,8.63
2019-04-21T15:36:35.477Z,11.67
2019-04-21T15:39:11.887Z,8.37
2019-04-21T15:41:48.328Z,10.47
2019-04-21T15:44:22.874Z,8.87
2019-04-21T15:46:57.722Z,9.37
2019-04-21T15:50:02.962Z,10.00
2019-04-21T15:52:31.799Z,14.23
2019-04-21T15:55:28.461Z,14.33
2019-04-21T15:58:20.787Z,7.73
2019-04-21T16:01:18.669Z,10.37
2019-04-21T16:03:55.324Z,8.87
2019-04-21T16:06:29.635Z,11.03
2019-04-21T16:09:16.159Z,11.30
2019-04-21T16:11:49.576Z,12.50
2019-04-21T16:14:32.450Z,10.67
2019-04-21T16:17:07.591Z,8.87
2019-04-21T16:19:45.651Z,9.57
2019-04-21T16:22:20.915Z,14.87
2019-04-21T16:24:54.831Z,11.77
2019-04-21T16:27:29.641Z,13.63
2019-04-21T16:30:03.893Z,11.07
2019-04-21T16:32:38.566Z,11.43
2019-04-21T16:35:14.438Z,11.93
2019-04-21T16:37:48.227Z,9.70
2019-04-21T16:40:40.779Z,11.93
2019-04-21T16:43:04.437Z,10.87
2019-04-21T16:45:41.096Z,8.00
2019-04-21T16:48:16.882Z,11.50
2019-04-21T16:50:52.873Z,8.70
2019-04-21T16:53:35.524Z,9.00
2019-04-21T16:56:29.213Z,12.47
2019-04-21T16:59:20.808Z,8.53
2019-04-21T17:01:56.545Z,15.43
2019-04-21T17:04:31.776Z,9.37
2019-04-21T17:07:07.163Z,9.97
2019-04-21T17:09:41.367Z,18.00
2019-04-21T17:12:18.309Z,17.03
2019-04-21T17:15:08.019Z,19.10
2019-04-21T17:17:52.717Z,9.40
2019-04-21T17:20:17.206Z,16.80
2019-04-21T17:22:43.612Z,20.40
2019-04-21T17:25:21.521Z,19.70
2019-04-21T17:27:56.780Z,17.17
2019-04-21T17:30:34.672Z,15.93
2019-04-21T17:33:16.170Z,14.53
2019-04-21T17:35:51.117Z,15.30
2019-04-21T17:38:25.944Z,11.00
2019-04-21T17:41:14.250Z,15.70
2019-04-21T17:43:39.624Z,11.17
2019-04-21T17:46:24.517Z,13.63
2019-04-21T17:48:49.294Z,13.57
2019-04-21T17:51:51.769Z,25.23
2019-04-21T17:54:32.174Z,24.23
2019-04-21T17:57:21.611Z,22.70
2019-04-21T18:00:05.128Z,15.03
2019-04-21T18:02:35.420Z,11.43
2019-04-21T18:05:19.221Z,21.67
2019-04-21T18:07:46.488Z,19.37
2019-04-21T18:10:24.673Z,16.67
2019-04-21T18:12:52.329Z,18.87
2019-04-21T18:15:36.338Z,15.77
2019-04-21T18:17:52.492Z,21.57
2019-04-21T18:20:30.096Z,17.13
2019-04-21T18:23:44.942Z,11.53
2019-04-21T18:26:15.373Z,24.80
2019-04-21T18:28:44.457Z,19.17
2019-04-21T18:31:18.515Z,25.23
2019-04-21T18:34:17.470Z,20.83
2019-04-21T18:36:58.877Z,24.47
2019-04-21T18:39:55.849Z,27.20
2019-04-21T18:42:47.769Z,35.77
2019-04-21T18:46:01.943Z,31.83
2019-04-21T18:48:41.183Z,31.10
2019-04-21T18:51:22.838Z,31.40
2019-04-21T18:54:26.950Z,19.13
2019-04-21T18:56:52.485Z,24.40
2019-04-21T18:59:21.190Z,28.33
2019-04-21T19:02:05.380Z,30.70
2019-04-21T19:04:40.525Z,25.73
2019-04-21T19:07:28.917Z,25.50
2019-04-21T19:13:21.804Z,17.77
2019-04-21T19:15:20.297Z,33.43
2019-04-21T19:18:32.563Z,25.27
2019-04-21T19:20:47.054Z,25.13
2019-04-21T19:23:33.857Z,19.57
2019-04-21T19:26:09.980Z,18.63
2019-04-21T19:28:40.932Z,26.67
2019-04-21T19:31:20.931Z,36.23
2019-04-21T19:33:48.066Z,23.33
2019-04-21T19:36:11.132Z,33.43
2019-04-21T19:38:55.905Z,33.57
2019-04-21T19:41:43.141Z,43.07
2019-04-21T19:44:29.298Z,56.30
2019-04-21T19:47:16.973Z,23.93
2019-04-21T19:49:58.300Z,38.33
2019-04-21T19:52:25.564Z,44.97
2019-04-21T19:54:51.148Z,34.00
2019-04-21T19:57:29.418Z,31.70
2019-04-21T20:00:06.025Z,32.87
2019-04-21T20:02:40.202Z,28.70
2019-04-21T20:05:24.182Z,38.63
2019-04-21T20:08:06.455Z,36.20
2019-04-21T20:10:55.514Z,52.50
2019-04-21T20:13:42.134Z,35.33
2019-04-21T20:16:08.055Z,25.73
2019-04-21T20:18:36.242Z,27.07
2019-04-21T20:21:01.999Z,27.23
2019-04-21T20:23:57.528Z,25.20
2019-04-21T20:26:35.692Z,24.13
2019-04-21T20:29:20.233Z,24.93
2019-04-21T20:31:54.249Z,28.00
2019-04-21T20:34:41.746Z,33.03
2019-04-21T20:37:19.117Z,29.43
2019-04-21T20:39:41.837Z,57.07
2019-04-21T20:42:21.623Z,32.23
2019-04-21T20:45:19.107Z,17.27
2019-04-21T20:47:29.770Z,40.23
2019-04-21T20:50:12.643Z,25.13
2019-04-21T20:52:55.195Z,26.20
2019-04-21T20:55:20.225Z,20.50
2019-04-21T20:57:58.022Z,29.77
2019-04-21T21:00:54.728Z,27.43
2019-04-21T21:03:21.313Z,24.43
2019-04-21T21:05:49.714Z,28.10
2019-04-21T21:08:35.514Z,31.80
2019-04-21T21:11:06.808Z,23.43
2019-04-21T21:13:49.135Z,31.97
2019-04-21T21:16:36.837Z,24.17
2019-04-21T21:19:10.615Z,22.83
2019-04-21T21:21:38.321Z,25.23
2019-04-21T21:24:08.756Z,28.30
2019-04-21T21:26:50.302Z,22.17
2019-04-21T21:29:45.267Z,22.93
2019-04-21T21:32:23.543Z,23.80
2019-04-21T21:35:00.446Z,23.80
2019-04-21T21:37:36.893Z,22.17
2019-04-21T21:40:11.144Z,26.60
2019-04-21T21:42:33.806Z,24.57
2019-04-21T21:45:11.347Z,24.63
2019-04-21T21:47:56.236Z,28.10
2019-04-21T21:50:26.053Z,33.70
2019-04-21T21:53:00.547Z,26.37
2019-04-21T21:55:32.322Z,30.40
2019-04-21T21:58:07.646Z,28.57
2019-04-21T22:00:46.405Z,26.33
2019-04-21T22:03:27.011Z,23.43
2019-04-21T22:06:03.477Z,31.07
2019-04-21T22:08:34.258Z,20.63
2019-04-21T22:11:08.998Z,25.03
2019-04-21T22:13:53.153Z,24.87
2019-04-21T22:16:21.787Z,22.80
2019-04-21T22:19:17.641Z,16.63
2019-04-21T22:21:53.628Z,30.87
2019-04-21T22:24:43.952Z,28.60
2019-04-21T22:27:05.259Z,20.83
2019-04-21T22:29:48.207Z,15.40
2019-04-21T22:32:23.350Z,16.10
2019-04-21T22:35:01.591Z,30.90
2019-04-21T22:37:45.090Z,20.87
2019-04-21T22:40:22.591Z,25.73
2019-04-21T22:42:59.266Z,27.73
2019-04-21T22:45:29.311Z,24.10
2019-04-21T22:48:13.565Z,22.33
2019-04-21T22:50:40.592Z,15.53
2019-04-21T22:53:16.141Z,13.70
2019-04-21T22:55:58.664Z,18.53
2019-04-21T22:58:31.941Z,18.10
2019-04-21T23:01:06.130Z,19.03
2019-04-21T23:03:47.038Z,24.30
2019-04-21T23:06:19.973Z,20.03
2019-04-21T23:08:53.148Z,21.30
2019-04-21T23:11:29.297Z,21.50
2019-04-21T23:14:06.584Z,29.90
2019-04-21T23:16:40.298Z,22.00
2019-04-21T23:19:31.408Z,42.87
2019-04-21T23:22:02.453Z,28.40
2019-04-21T23:24:48.076Z,20.77
2019-04-21T23:27:11.731Z,17.60
2019-04-21T23:30:17.727Z,20.03
2019-04-21T23:32:26.958Z,18.23
2019-04-21T23:34:45.967Z,14.87
2019-04-21T23:37:24.119Z,25.20
2019-04-21T23:40:05.713Z,30.90
2019-04-21T23:42:37.082Z,17.23
2019-04-21T23:45:09.197Z,26.73
2019-04-21T23:48:07.042Z,18.87
2019-04-21T23:50:34.237Z,27.70
2019-04-21T23:52:59.339Z,20.37
2019-04-21T23:55:35.045Z,17.37
2019-04-21T23:58:18.030Z,22.17
